sensor_id;sensor_type;location;lat;lon;timestamp;P1;durP1;ratioP1;P2;durP2;ratioP2
50393;SDS011;36308;46.312;25.288;2022-08-14T00:00:40;10.82;;;7.15;;
50393;SDS011;36308;46.312;25.288;2022-08-14T00:03:07;10.40;;;7.50;;
50393;SDS011;36308;46.312;25.288;2022-08-14T00:05:33;10.27;;;7.93;;
50393;SDS011;36308;46.312;25.288;2022-08-14T00:07:58;9.77;;;7.20;;
50393;SDS011;36308;46.312;25.288;2022-08-14T00:10:23;9.32;;;7.63;;
50393;SDS011;36308;46.312;25.288;2022-08-14T00:12:50;11.80;;;8.48;;
50393;SDS011;36308;46.312;25.288;2022-08-14T00:15:18;11.15;;;8.18;;
50393;SDS011;36308;46.312;25.288;2022-08-14T00:17:55;13.13;;;8.23;;
50393;SDS011;36308;46.312;25.288;2022-08-14T00:20:22;10.65;;;7.50;;
50393;SDS011;36308;46.312;25.288;2022-08-14T00:22:51;12.60;;;8.15;;
50393;SDS011;36308;46.312;25.288;2022-08-14T00:25:17;11.35;;;7.30;;
50393;SDS011;36308;46.312;25.288;2022-08-14T00:27:42;12.05;;;7.53;;
50393;SDS011;36308;46.312;25.288;2022-08-14T00:30:09;10.57;;;7.00;;
50393;SDS011;36308;46.312;25.288;2022-08-14T00:32:36;10.00;;;7.28;;
50393;SDS011;36308;46.312;25.288;2022-08-14T00:35:02;9.90;;;6.75;;
50393;SDS011;36308;46.312;25.288;2022-08-14T00:37:29;12.60;;;7.35;;
50393;SDS011;36308;46.312;25.288;2022-08-14T00:39:55;9.23;;;7.03;;
50393;SDS011;36308;46.312;25.288;2022-08-14T00:42:21;9.50;;;6.78;;
50393;SDS011;36308;46.312;25.288;2022-08-14T00:44:47;9.48;;;7.15;;
50393;SDS011;36308;46.312;25.288;2022-08-14T00:47:14;8.82;;;6.75;;
50393;SDS011;36308;46.312;25.288;2022-08-14T00:49:40;12.85;;;7.10;;
50393;SDS011;36308;46.312;25.288;2022-08-14T00:52:07;8.88;;;6.70;;
50393;SDS011;36308;46.312;25.288;2022-08-14T00:54:33;10.32;;;6.80;;
50393;SDS011;36308;46.312;25.288;2022-08-14T00:57:01;11.02;;;6.85;;
50393;SDS011;36308;46.312;25.288;2022-08-14T00:59:26;7.82;;;6.07;;
50393;SDS011;36308;46.312;25.288;2022-08-14T01:01:57;9.98;;;6.63;;
50393;SDS011;36308;46.312;25.288;2022-08-14T01:04:24;9.73;;;6.97;;
50393;SDS011;36308;46.312;25.288;2022-08-14T01:06:51;10.05;;;7.07;;
50393;SDS011;36308;46.312;25.288;2022-08-14T01:09:17;10.00;;;7.13;;
50393;SDS011;36308;46.312;25.288;2022-08-14T01:11:47;12.95;;;7.18;;
50393;SDS011;36308;46.312;25.288;2022-08-14T01:14:14;9.35;;;7.32;;
50393;SDS011;36308;46.312;25.288;2022-08-14T01:16:40;9.50;;;7.07;;
50393;SDS011;36308;46.312;25.288;2022-08-14T01:19:06;10.35;;;7.68;;
50393;SDS011;36308;46.312;25.288;2022-08-14T01:21:50;10.07;;;7.18;;
50393;SDS011;36308;46.312;25.288;2022-08-14T01:24:16;8.85;;;6.78;;
50393;SDS011;36308;46.312;25.288;2022-08-14T01:26:41;11.20;;;6.88;;
50393;SDS011;36308;46.312;25.288;2022-08-14T01:29:07;11.55;;;7.32;;
50393;SDS011;36308;46.312;25.288;2022-08-14T01:31:34;9.18;;;6.68;;
50393;SDS011;36308;46.312;25.288;2022-08-14T01:34:10;11.25;;;7.00;;
50393;SDS011;36308;46.312;25.288;2022-08-14T01:36:37;10.00;;;6.90;;
50393;SDS011;36308;46.312;25.288;2022-08-14T01:41:31;10.05;;;6.82;;
50393;SDS011;36308;46.312;25.288;2022-08-14T01:43:59;9.82;;;7.18;;
50393;SDS011;36308;46.312;25.288;2022-08-14T01:46:27;11.10;;;7.53;;
50393;SDS011;36308;46.312;25.288;2022-08-14T01:48:54;12.07;;;7.35;;
50393;SDS011;36308;46.312;25.288;2022-08-14T01:51:21;12.15;;;7.30;;
50393;SDS011;36308;46.312;25.288;2022-08-14T01:53:52;9.88;;;7.50;;
50393;SDS011;36308;46.312;25.288;2022-08-14T01:56:20;10.70;;;7.68;;
50393;SDS011;36308;46.312;25.288;2022-08-14T01:58:57;11.90;;;8.20;;
50393;SDS011;36308;46.312;25.288;2022-08-14T02:01:24;12.18;;;7.80;;
50393;SDS011;36308;46.312;25.288;2022-08-14T02:03:50;16.50;;;8.05;;
50393;SDS011;36308;46.312;25.288;2022-08-14T02:06:16;13.27;;;7.30;;
50393;SDS011;36308;46.312;25.288;2022-08-14T02:08:41;12.82;;;7.07;;
50393;SDS011;36308;46.312;25.288;2022-08-14T02:11:09;9.40;;;6.97;;
50393;SDS011;36308;46.312;25.288;2022-08-14T02:13:41;11.68;;;6.97;;
50393;SDS011;36308;46.312;25.288;2022-08-14T02:16:12;10.13;;;6.88;;
50393;SDS011;36308;46.312;25.288;2022-08-14T02:18:40;10.38;;;6.70;;
50393;SDS011;36308;46.312;25.288;2022-08-14T02:21:07;9.57;;;6.82;;
50393;SDS011;36308;46.312;25.288;2022-08-14T02:23:33;9.98;;;7.40;;
50393;SDS011;36308;46.312;25.288;2022-08-14T02:26:00;9.57;;;7.10;;
50393;SDS011;36308;46.312;25.288;2022-08-14T02:28:29;15.05;;;7.30;;
50393;SDS011;36308;46.312;25.288;2022-08-14T02:30:56;10.45;;;6.65;;
50393;SDS011;36308;46.312;25.288;2022-08-14T02:33:23;9.80;;;7.20;;
50393;SDS011;36308;46.312;25.288;2022-08-14T02:35:49;10.95;;;7.03;;
50393;SDS011;36308;46.312;25.288;2022-08-14T02:38:16;11.75;;;6.95;;
50393;SDS011;36308;46.312;25.288;2022-08-14T02:40:41;11.15;;;7.13;;
50393;SDS011;36308;46.312;25.288;2022-08-14T02:43:06;11.05;;;7.43;;
50393;SDS011;36308;46.312;25.288;2022-08-14T02:45:32;9.90;;;7.38;;
50393;SDS011;36308;46.312;25.288;2022-08-14T02:48:02;11.68;;;7.05;;
50393;SDS011;36308;46.312;25.288;2022-08-14T02:50:32;10.98;;;7.22;;
50393;SDS011;36308;46.312;25.288;2022-08-14T02:53:01;10.35;;;6.95;;
50393;SDS011;36308;46.312;25.288;2022-08-14T02:55:26;12.48;;;7.30;;
50393;SDS011;36308;46.312;25.288;2022-08-14T02:57:55;10.98;;;7.68;;
50393;SDS011;36308;46.312;25.288;2022-08-14T03:00:22;9.15;;;7.20;;
50393;SDS011;36308;46.312;25.288;2022-08-14T03:02:48;14.45;;;7.53;;
50393;SDS011;36308;46.312;25.288;2022-08-14T03:05:15;10.30;;;7.68;;
50393;SDS011;36308;46.312;25.288;2022-08-14T03:07:41;10.43;;;7.43;;
50393;SDS011;36308;46.312;25.288;2022-08-14T03:10:09;9.85;;;6.97;;
50393;SDS011;36308;46.312;25.288;2022-08-14T03:12:35;12.10;;;7.57;;
50393;SDS011;36308;46.312;25.288;2022-08-14T03:15:01;9.82;;;7.30;;
50393;SDS011;36308;46.312;25.288;2022-08-14T03:17:34;10.75;;;7.28;;
50393;SDS011;36308;46.312;25.288;2022-08-14T03:19:59;10.85;;;7.45;;
50393;SDS011;36308;46.312;25.288;2022-08-14T03:22:25;8.95;;;7.47;;
50393;SDS011;36308;46.312;25.288;2022-08-14T03:24:51;13.70;;;8.13;;
50393;SDS011;36308;46.312;25.288;2022-08-14T03:27:17;12.95;;;7.65;;
50393;SDS011;36308;46.312;25.288;2022-08-14T03:29:42;12.18;;;7.30;;
50393;SDS011;36308;46.312;25.288;2022-08-14T03:32:08;10.23;;;7.70;;
50393;SDS011;36308;46.312;25.288;2022-08-14T03:34:33;10.98;;;7.63;;
50393;SDS011;36308;46.312;25.288;2022-08-14T03:36:59;10.43;;;7.70;;
50393;SDS011;36308;46.312;25.288;2022-08-14T03:39:24;11.20;;;7.47;;
50393;SDS011;36308;46.312;25.288;2022-08-14T03:41:52;12.60;;;7.63;;
50393;SDS011;36308;46.312;25.288;2022-08-14T03:44:20;10.88;;;7.97;;
50393;SDS011;36308;46.312;25.288;2022-08-14T03:46:46;9.85;;;7.40;;
50393;SDS011;36308;46.312;25.288;2022-08-14T03:49:12;11.50;;;8.52;;
50393;SDS011;36308;46.312;25.288;2022-08-14T03:51:37;11.20;;;8.18;;
50393;SDS011;36308;46.312;25.288;2022-08-14T03:54:04;12.73;;;8.15;;
50393;SDS011;36308;46.312;25.288;2022-08-14T03:56:36;12.13;;;8.27;;
50393;SDS011;36308;46.312;25.288;2022-08-14T03:59:04;13.23;;;7.93;;
50393;SDS011;36308;46.312;25.288;2022-08-14T04:01:35;12.68;;;7.55;;
50393;SDS011;36308;46.312;25.288;2022-08-14T04:04:05;11.52;;;8.27;;
50393;SDS011;36308;46.312;25.288;2022-08-14T04:06:35;14.07;;;8.15;;
50393;SDS011;36308;46.312;25.288;2022-08-14T04:09:03;13.63;;;7.70;;
50393;SDS011;36308;46.312;25.288;2022-08-14T04:11:31;10.48;;;8.05;;
50393;SDS011;36308;46.312;25.288;2022-08-14T04:13:57;15.63;;;8.35;;
50393;SDS011;36308;46.312;25.288;2022-08-14T04:16:22;11.57;;;7.80;;
50393;SDS011;36308;46.312;25.288;2022-08-14T04:18:49;11.93;;;8.18;;
50393;SDS011;36308;46.312;25.288;2022-08-14T04:21:20;11.48;;;7.88;;
50393;SDS011;36308;46.312;25.288;2022-08-14T04:23:48;16.98;;;8.35;;
50393;SDS011;36308;46.312;25.288;2022-08-14T04:26:15;11.65;;;7.72;;
50393;SDS011;36308;46.312;25.288;2022-08-14T04:28:44;10.10;;;8.13;;
50393;SDS011;36308;46.312;25.288;2022-08-14T04:31:10;13.80;;;8.52;;
50393;SDS011;36308;46.312;25.288;2022-08-14T04:33:36;13.10;;;8.40;;
50393;SDS011;36308;46.312;25.288;2022-08-14T04:36:02;11.85;;;8.48;;
50393;SDS011;36308;46.312;25.288;2022-08-14T04:38:27;12.90;;;8.30;;
50393;SDS011;36308;46.312;25.288;2022-08-14T04:43:55;11.45;;;8.45;;
50393;SDS011;36308;46.312;25.288;2022-08-14T04:46:21;10.07;;;7.68;;
50393;SDS011;36308;46.312;25.288;2022-08-14T04:48:48;12.40;;;8.45;;
50393;SDS011;36308;46.312;25.288;2022-08-14T04:51:15;13.73;;;7.78;;
50393;SDS011;36308;46.312;25.288;2022-08-14T04:53:43;11.90;;;8.55;;
50393;SDS011;36308;46.312;25.288;2022-08-14T04:56:12;13.02;;;8.68;;
50393;SDS011;36308;46.312;25.288;2022-08-14T04:58:40;14.18;;;8.82;;
50393;SDS011;36308;46.312;25.288;2022-08-14T05:01:07;13.57;;;9.50;;
50393;SDS011;36308;46.312;25.288;2022-08-14T05:03:35;13.45;;;9.27;;
50393;SDS011;36308;46.312;25.288;2022-08-14T05:06:02;10.70;;;8.48;;
50393;SDS011;36308;46.312;25.288;2022-08-14T05:08:30;14.63;;;9.18;;
50393;SDS011;36308;46.312;25.288;2022-08-14T05:10:57;12.95;;;9.38;;
50393;SDS011;36308;46.312;25.288;2022-08-14T05:13:24;13.23;;;9.48;;
50393;SDS011;36308;46.312;25.288;2022-08-14T05:15:51;12.00;;;9.30;;
50393;SDS011;36308;46.312;25.288;2022-08-14T05:18:21;13.05;;;8.38;;
50393;SDS011;36308;46.312;25.288;2022-08-14T05:20:54;13.13;;;9.65;;
50393;SDS011;36308;46.312;25.288;2022-08-14T05:23:21;17.03;;;14.27;;
50393;SDS011;36308;46.312;25.288;2022-08-14T05:25:52;14.93;;;10.07;;
50393;SDS011;36308;46.312;25.288;2022-08-14T05:28:24;14.98;;;9.82;;
50393;SDS011;36308;46.312;25.288;2022-08-14T05:30:52;14.10;;;9.70;;
50393;SDS011;36308;46.312;25.288;2022-08-14T05:33:37;12.68;;;9.07;;
50393;SDS011;36308;46.312;25.288;2022-08-14T05:36:04;13.27;;;8.95;;
50393;SDS011;36308;46.312;25.288;2022-08-14T05:38:32;13.15;;;10.27;;
50393;SDS011;36308;46.312;25.288;2022-08-14T05:41:04;11.00;;;8.95;;
50393;SDS011;36308;46.312;25.288;2022-08-14T05:43:31;14.13;;;10.35;;
50393;SDS011;36308;46.312;25.288;2022-08-14T05:45:57;15.07;;;8.70;;
50393;SDS011;36308;46.312;25.288;2022-08-14T05:48:24;12.15;;;9.63;;
50393;SDS011;36308;46.312;25.288;2022-08-14T05:50:50;11.10;;;9.35;;
50393;SDS011;36308;46.312;25.288;2022-08-14T05:53:18;14.77;;;9.23;;
50393;SDS011;36308;46.312;25.288;2022-08-14T05:55:48;12.10;;;9.35;;
50393;SDS011;36308;46.312;25.288;2022-08-14T05:58:14;13.50;;;9.82;;
50393;SDS011;36308;46.312;25.288;2022-08-14T06:00:41;12.52;;;9.55;;
50393;SDS011;36308;46.312;25.288;2022-08-14T06:03:12;11.57;;;9.38;;
50393;SDS011;36308;46.312;25.288;2022-08-14T06:05:40;12.25;;;8.90;;
50393;SDS011;36308;46.312;25.288;2022-08-14T06:11:03;13.23;;;10.05;;
50393;SDS011;36308;46.312;25.288;2022-08-14T06:13:31;11.95;;;9.60;;
50393;SDS011;36308;46.312;25.288;2022-08-14T06:15:59;14.60;;;9.77;;
50393;SDS011;36308;46.312;25.288;2022-08-14T06:18:24;13.68;;;9.38;;
50393;SDS011;36308;46.312;25.288;2022-08-14T06:20:50;11.32;;;8.82;;
50393;SDS011;36308;46.312;25.288;2022-08-14T06:23:15;15.13;;;9.80;;
50393;SDS011;36308;46.312;25.288;2022-08-14T06:25:41;12.25;;;9.20;;
50393;SDS011;36308;46.312;25.288;2022-08-14T06:28:14;12.85;;;9.63;;
50393;SDS011;36308;46.312;25.288;2022-08-14T06:30:41;12.77;;;10.18;;
50393;SDS011;36308;46.312;25.288;2022-08-14T06:33:06;14.48;;;10.10;;
50393;SDS011;36308;46.312;25.288;2022-08-14T06:35:31;17.30;;;10.43;;
50393;SDS011;36308;46.312;25.288;2022-08-14T06:37:58;21.63;;;12.38;;
50393;SDS011;36308;46.312;25.288;2022-08-14T06:40:25;19.85;;;11.40;;
50393;SDS011;36308;46.312;25.288;2022-08-14T06:42:54;17.20;;;11.43;;
50393;SDS011;36308;46.312;25.288;2022-08-14T06:45:23;17.95;;;10.60;;
50393;SDS011;36308;46.312;25.288;2022-08-14T06:47:49;16.60;;;11.48;;
50393;SDS011;36308;46.312;25.288;2022-08-14T06:50:16;13.15;;;10.73;;
50393;SDS011;36308;46.312;25.288;2022-08-14T06:52:42;17.17;;;11.30;;
50393;SDS011;36308;46.312;25.288;2022-08-14T06:55:09;13.23;;;10.18;;
50393;SDS011;36308;46.312;25.288;2022-08-14T06:57:38;14.65;;;10.25;;
50393;SDS011;36308;46.312;25.288;2022-08-14T07:00:18;14.80;;;11.43;;
50393;SDS011;36308;46.312;25.288;2022-08-14T07:02:48;15.02;;;10.63;;
50393;SDS011;36308;46.312;25.288;2022-08-14T07:05:34;15.48;;;11.27;;
50393;SDS011;36308;46.312;25.288;2022-08-14T07:08:27;11.90;;;10.60;;
50393;SDS011;36308;46.312;25.288;2022-08-14T07:10:55;14.30;;;10.45;;
50393;SDS011;36308;46.312;25.288;2022-08-14T07:13:22;14.95;;;10.73;;
50393;SDS011;36308;46.312;25.288;2022-08-14T07:15:49;16.67;;;10.23;;
50393;SDS011;36308;46.312;25.288;2022-08-14T07:18:24;16.00;;;10.65;;
50393;SDS011;36308;46.312;25.288;2022-08-14T07:20:51;14.82;;;10.45;;
50393;SDS011;36308;46.312;25.288;2022-08-14T07:23:17;12.93;;;9.57;;
50393;SDS011;36308;46.312;25.288;2022-08-14T07:25:43;14.30;;;10.95;;
50393;SDS011;36308;46.312;25.288;2022-08-14T07:30:53;14.82;;;10.35;;
50393;SDS011;36308;46.312;25.288;2022-08-14T07:33:22;13.20;;;10.25;;
50393;SDS011;36308;46.312;25.288;2022-08-14T07:35:48;12.77;;;10.57;;
50393;SDS011;36308;46.312;25.288;2022-08-14T07:38:18;13.85;;;10.45;;
50393;SDS011;36308;46.312;25.288;2022-08-14T07:40:44;13.75;;;10.40;;
50393;SDS011;36308;46.312;25.288;2022-08-14T07:43:10;14.77;;;10.60;;
50393;SDS011;36308;46.312;25.288;2022-08-14T07:45:38;14.48;;;10.40;;
50393;SDS011;36308;46.312;25.288;2022-08-14T07:48:05;13.63;;;10.45;;
50393;SDS011;36308;46.312;25.288;2022-08-14T07:50:31;15.13;;;10.02;;
50393;SDS011;36308;46.312;25.288;2022-08-14T07:52:58;14.48;;;10.10;;
50393;SDS011;36308;46.312;25.288;2022-08-14T07:55:24;12.02;;;9.63;;
50393;SDS011;36308;46.312;25.288;2022-08-14T07:57:50;13.80;;;9.73;;
50393;SDS011;36308;46.312;25.288;2022-08-14T08:00:17;12.40;;;10.15;;
50393;SDS011;36308;46.312;25.288;2022-08-14T08:02:47;12.65;;;9.88;;
50393;SDS011;36308;46.312;25.288;2022-08-14T08:05:14;14.88;;;9.98;;
50393;SDS011;36308;46.312;25.288;2022-08-14T08:07:41;13.73;;;9.77;;
50393;SDS011;36308;46.312;25.288;2022-08-14T08:10:12;14.45;;;9.55;;
50393;SDS011;36308;46.312;25.288;2022-08-14T08:13:05;13.40;;;9.88;;
50393;SDS011;36308;46.312;25.288;2022-08-14T08:15:34;13.05;;;9.38;;
50393;SDS011;36308;46.312;25.288;2022-08-14T08:18:05;13.30;;;9.57;;
50393;SDS011;36308;46.312;25.288;2022-08-14T08:20:36;13.00;;;9.75;;
50393;SDS011;36308;46.312;25.288;2022-08-14T08:23:05;12.88;;;9.30;;
50393;SDS011;36308;46.312;25.288;2022-08-14T08:25:32;12.60;;;9.23;;
50393;SDS011;36308;46.312;25.288;2022-08-14T08:28:20;12.68;;;8.95;;
50393;SDS011;36308;46.312;25.288;2022-08-14T08:30:54;12.60;;;8.98;;
50393;SDS011;36308;46.312;25.288;2022-08-14T08:33:21;16.17;;;9.35;;
50393;SDS011;36308;46.312;25.288;2022-08-14T08:35:49;11.75;;;8.85;;
50393;SDS011;36308;46.312;25.288;2022-08-14T08:38:16;12.73;;;9.35;;
50393;SDS011;36308;46.312;25.288;2022-08-14T08:40:45;13.02;;;9.05;;
50393;SDS011;36308;46.312;25.288;2022-08-14T08:45:52;14.23;;;9.70;;
50393;SDS011;36308;46.312;25.288;2022-08-14T08:48:19;15.93;;;9.57;;
50393;SDS011;36308;46.312;25.288;2022-08-14T08:50:46;12.95;;;8.73;;
50393;SDS011;36308;46.312;25.288;2022-08-14T08:53:12;15.15;;;8.43;;
50393;SDS011;36308;46.312;25.288;2022-08-14T08:55:42;12.30;;;8.98;;
50393;SDS011;36308;46.312;25.288;2022-08-14T08:58:10;12.32;;;8.82;;
50393;SDS011;36308;46.312;25.288;2022-08-14T09:00:41;12.60;;;9.27;;
50393;SDS011;36308;46.312;25.288;2022-08-14T09:03:10;13.05;;;9.55;;
50393;SDS011;36308;46.312;25.288;2022-08-14T09:06:01;12.73;;;9.30;;
50393;SDS011;36308;46.312;25.288;2022-08-14T09:08:33;12.38;;;9.15;;
50393;SDS011;36308;46.312;25.288;2022-08-14T09:11:01;13.32;;;9.68;;
50393;SDS011;36308;46.312;25.288;2022-08-14T09:13:28;13.82;;;9.27;;
50393;SDS011;36308;46.312;25.288;2022-08-14T09:15:54;12.48;;;9.27;;
50393;SDS011;36308;46.312;25.288;2022-08-14T09:18:21;13.38;;;8.85;;
50393;SDS011;36308;46.312;25.288;2022-08-14T09:20:52;11.15;;;8.85;;
50393;SDS011;36308;46.312;25.288;2022-08-14T09:23:19;12.52;;;8.85;;
50393;SDS011;36308;46.312;25.288;2022-08-14T09:25:47;12.95;;;9.05;;
50393;SDS011;36308;46.312;25.288;2022-08-14T09:28:15;14.10;;;9.50;;
50393;SDS011;36308;46.312;25.288;2022-08-14T09:30:43;16.55;;;9.25;;
50393;SDS011;36308;46.312;25.288;2022-08-14T09:33:17;13.55;;;8.25;;
50393;SDS011;36308;46.312;25.288;2022-08-14T09:47:38;12.38;;;9.02;;
50393;SDS011;36308;46.312;25.288;2022-08-14T09:50:17;10.60;;;8.90;;
50393;SDS011;36308;46.312;25.288;2022-08-14T09:55:27;11.10;;;8.90;;
50393;SDS011;36308;46.312;25.288;2022-08-14T09:58:09;11.20;;;9.00;;
50393;SDS011;36308;46.312;25.288;2022-08-14T10:00:43;12.70;;;9.07;;
50393;SDS011;36308;46.312;25.288;2022-08-14T10:03:11;11.05;;;8.75;;
50393;SDS011;36308;46.312;25.288;2022-08-14T10:05:37;11.98;;;9.05;;
50393;SDS011;36308;46.312;25.288;2022-08-14T10:08:03;11.73;;;8.80;;
50393;SDS011;36308;46.312;25.288;2022-08-14T10:10:40;12.82;;;9.32;;
50393;SDS011;36308;46.312;25.288;2022-08-14T10:13:06;10.88;;;8.63;;
50393;SDS011;36308;46.312;25.288;2022-08-14T10:15:44;13.18;;;9.48;;
50393;SDS011;36308;46.312;25.288;2022-08-14T10:18:14;10.70;;;8.80;;
50393;SDS011;36308;46.312;25.288;2022-08-14T10:20:42;11.90;;;8.18;;
50393;SDS011;36308;46.312;25.288;2022-08-14T10:23:16;11.57;;;8.95;;
50393;SDS011;36308;46.312;25.288;2022-08-14T10:25:45;10.70;;;8.35;;
50393;SDS011;36308;46.312;25.288;2022-08-14T10:28:16;11.25;;;8.93;;
50393;SDS011;36308;46.312;25.288;2022-08-14T10:30:43;12.00;;;9.25;;
50393;SDS011;36308;46.312;25.288;2022-08-14T10:33:22;12.80;;;8.38;;
50393;SDS011;36308;46.312;25.288;2022-08-14T10:35:53;11.52;;;8.52;;
50393;SDS011;36308;46.312;25.288;2022-08-14T10:38:30;9.93;;;8.40;;
50393;SDS011;36308;46.312;25.288;2022-08-14T10:43:41;10.90;;;8.77;;
50393;SDS011;36308;46.312;25.288;2022-08-14T10:48:39;11.15;;;7.55;;
50393;SDS011;36308;46.312;25.288;2022-08-14T10:51:04;10.82;;;8.43;;
50393;SDS011;36308;46.312;25.288;2022-08-14T10:53:31;12.27;;;8.15;;
50393;SDS011;36308;46.312;25.288;2022-08-14T10:55:59;11.02;;;8.48;;
50393;SDS011;36308;46.312;25.288;2022-08-14T10:58:28;10.70;;;8.10;;
50393;SDS011;36308;46.312;25.288;2022-08-14T11:00:56;12.52;;;8.63;;
50393;SDS011;36308;46.312;25.288;2022-08-14T11:03:35;11.52;;;9.30;;
50393;SDS011;36308;46.312;25.288;2022-08-14T11:06:10;10.20;;;9.02;;
50393;SDS011;36308;46.312;25.288;2022-08-14T11:08:40;16.42;;;8.98;;
50393;SDS011;36308;46.312;25.288;2022-08-14T11:11:05;9.85;;;8.48;;
50393;SDS011;36308;46.312;25.288;2022-08-14T11:13:31;11.20;;;8.40;;
50393;SDS011;36308;46.312;25.288;2022-08-14T11:15:57;12.23;;;8.60;;
50393;SDS011;36308;46.312;25.288;2022-08-14T11:18:24;12.23;;;9.20;;
50393;SDS011;36308;46.312;25.288;2022-08-14T11:20:55;11.10;;;8.35;;
50393;SDS011;36308;46.312;25.288;2022-08-14T11:23:27;11.60;;;8.68;;
50393;SDS011;36308;46.312;25.288;2022-08-14T11:25:57;13.43;;;8.55;;
50393;SDS011;36308;46.312;25.288;2022-08-14T11:28:25;11.93;;;8.85;;
50393;SDS011;36308;46.312;25.288;2022-08-14T11:30:53;12.10;;;8.52;;
50393;SDS011;36308;46.312;25.288;2022-08-14T11:33:24;9.23;;;8.00;;
50393;SDS011;36308;46.312;25.288;2022-08-14T11:35:54;10.60;;;8.20;;
50393;SDS011;36308;46.312;25.288;2022-08-14T11:38:24;11.80;;;7.93;;
50393;SDS011;36308;46.312;25.288;2022-08-14T11:40:50;10.85;;;8.65;;
50393;SDS011;36308;46.312;25.288;2022-08-14T11:43:16;11.57;;;9.20;;
50393;SDS011;36308;46.312;25.288;2022-08-14T11:45:44;12.45;;;9.15;;
50393;SDS011;36308;46.312;25.288;2022-08-14T11:48:16;10.40;;;8.73;;
50393;SDS011;36308;46.312;25.288;2022-08-14T11:50:42;10.73;;;8.63;;
50393;SDS011;36308;46.312;25.288;2022-08-14T11:53:18;10.82;;;8.48;;
50393;SDS011;36308;46.312;25.288;2022-08-14T11:55:44;13.07;;;8.80;;
50393;SDS011;36308;46.312;25.288;2022-08-14T11:58:10;20.55;;;10.95;;
50393;SDS011;36308;46.312;25.288;2022-08-14T12:00:46;16.60;;;7.47;;
50393;SDS011;36308;46.312;25.288;2022-08-14T12:03:13;11.82;;;6.80;;
50393;SDS011;36308;46.312;25.288;2022-08-14T12:05:39;10.68;;;6.20;;
50393;SDS011;36308;46.312;25.288;2022-08-14T12:08:07;14.98;;;7.25;;
50393;SDS011;36308;46.312;25.288;2022-08-14T12:10:35;13.77;;;6.93;;
50393;SDS011;36308;46.312;25.288;2022-08-14T12:15:39;13.07;;;8.48;;
50393;SDS011;36308;46.312;25.288;2022-08-14T12:18:09;15.43;;;9.93;;
50393;SDS011;36308;46.312;25.288;2022-08-14T12:20:36;14.70;;;10.05;;
50393;SDS011;36308;46.312;25.288;2022-08-14T12:23:07;16.35;;;9.80;;
50393;SDS011;36308;46.312;25.288;2022-08-14T12:25:46;14.25;;;9.82;;
50393;SDS011;36308;46.312;25.288;2022-08-14T12:28:12;15.68;;;10.70;;
50393;SDS011;36308;46.312;25.288;2022-08-14T12:30:41;14.27;;;10.27;;
50393;SDS011;36308;46.312;25.288;2022-08-14T12:35:49;10.38;;;7.40;;
50393;SDS011;36308;46.312;25.288;2022-08-14T12:38:16;9.10;;;7.00;;
50393;SDS011;36308;46.312;25.288;2022-08-14T12:40:48;12.20;;;7.80;;
50393;SDS011;36308;46.312;25.288;2022-08-14T12:43:15;13.38;;;7.88;;
50393;SDS011;36308;46.312;25.288;2022-08-14T12:45:47;11.68;;;7.07;;
50393;SDS011;36308;46.312;25.288;2022-08-14T12:48:15;15.98;;;9.20;;
50393;SDS011;36308;46.312;25.288;2022-08-14T12:50:43;13.95;;;9.50;;
50393;SDS011;36308;46.312;25.288;2022-08-14T12:53:09;12.20;;;8.25;;
50393;SDS011;36308;46.312;25.288;2022-08-14T12:55:36;15.25;;;9.40;;
50393;SDS011;36308;46.312;25.288;2022-08-14T12:58:06;13.13;;;8.43;;
50393;SDS011;36308;46.312;25.288;2022-08-14T13:00:33;13.05;;;9.73;;
50393;SDS011;36308;46.312;25.288;2022-08-14T13:03:02;14.60;;;8.82;;
50393;SDS011;36308;46.312;25.288;2022-08-14T13:05:30;14.10;;;9.05;;
50393;SDS011;36308;46.312;25.288;2022-08-14T13:07:59;15.40;;;9.02;;
50393;SDS011;36308;46.312;25.288;2022-08-14T13:10:30;10.40;;;7.65;;
50393;SDS011;36308;46.312;25.288;2022-08-14T13:12:57;10.57;;;7.00;;
50393;SDS011;36308;46.312;25.288;2022-08-14T13:15:24;10.30;;;7.50;;
50393;SDS011;36308;46.312;25.288;2022-08-14T13:17:51;9.85;;;6.93;;
50393;SDS011;36308;46.312;25.288;2022-08-14T13:20:20;8.75;;;6.25;;
50393;SDS011;36308;46.312;25.288;2022-08-14T13:22:47;12.77;;;7.80;;
50393;SDS011;36308;46.312;25.288;2022-08-14T13:25:15;9.30;;;7.15;;
50393;SDS011;36308;46.312;25.288;2022-08-14T13:27:49;9.05;;;6.85;;
50393;SDS011;36308;46.312;25.288;2022-08-14T13:30:19;9.85;;;7.53;;
50393;SDS011;36308;46.312;25.288;2022-08-14T13:32:45;12.75;;;8.02;;
50393;SDS011;36308;46.312;25.288;2022-08-14T13:35:11;10.40;;;8.05;;
50393;SDS011;36308;46.312;25.288;2022-08-14T13:37:42;18.48;;;9.30;;
50393;SDS011;36308;46.312;25.288;2022-08-14T13:40:09;12.27;;;7.72;;
50393;SDS011;36308;46.312;25.288;2022-08-14T13:42:38;9.10;;;7.00;;
50393;SDS011;36308;46.312;25.288;2022-08-14T13:45:06;8.38;;;6.38;;
50393;SDS011;36308;46.312;25.288;2022-08-14T13:47:33;12.10;;;7.50;;
50393;SDS011;36308;46.312;25.288;2022-08-14T13:50:03;10.70;;;6.70;;
50393;SDS011;36308;46.312;25.288;2022-08-14T13:52:41;8.38;;;6.80;;
50393;SDS011;36308;46.312;25.288;2022-08-14T13:55:10;8.93;;;6.65;;
50393;SDS011;36308;46.312;25.288;2022-08-14T13:57:38;8.80;;;5.72;;
50393;SDS011;36308;46.312;25.288;2022-08-14T14:00:11;8.68;;;6.03;;
50393;SDS011;36308;46.312;25.288;2022-08-14T14:02:39;7.25;;;5.28;;
50393;SDS011;36308;46.312;25.288;2022-08-14T14:05:06;10.30;;;5.25;;
50393;SDS011;36308;46.312;25.288;2022-08-14T14:07:34;7.45;;;5.03;;
50393;SDS011;36308;46.312;25.288;2022-08-14T14:10:02;6.60;;;4.50;;
50393;SDS011;36308;46.312;25.288;2022-08-14T14:12:30;10.23;;;4.57;;
50393;SDS011;36308;46.312;25.288;2022-08-14T14:15:00;7.95;;;4.50;;
50393;SDS011;36308;46.312;25.288;2022-08-14T14:17:25;8.52;;;4.78;;
50393;SDS011;36308;46.312;25.288;2022-08-14T14:19:53;9.35;;;4.70;;
50393;SDS011;36308;46.312;25.288;2022-08-14T14:22:20;7.28;;;5.05;;
50393;SDS011;36308;46.312;25.288;2022-08-14T14:24:45;7.93;;;4.97;;
50393;SDS011;36308;46.312;25.288;2022-08-14T14:27:12;6.68;;;4.90;;
50393;SDS011;36308;46.312;25.288;2022-08-14T14:29:39;7.05;;;5.50;;
50393;SDS011;36308;46.312;25.288;2022-08-14T14:32:15;7.45;;;5.25;;
50393;SDS011;36308;46.312;25.288;2022-08-14T14:34:41;7.15;;;4.88;;
50393;SDS011;36308;46.312;25.288;2022-08-14T14:37:08;9.45;;;6.65;;
50393;SDS011;36308;46.312;25.288;2022-08-14T14:39:36;10.52;;;7.93;;
50393;SDS011;36308;46.312;25.288;2022-08-14T14:42:02;9.55;;;6.03;;
50393;SDS011;36308;46.312;25.288;2022-08-14T14:44:33;9.07;;;6.18;;
50393;SDS011;36308;46.312;25.288;2022-08-14T14:47:06;8.85;;;5.68;;
50393;SDS011;36308;46.312;25.288;2022-08-14T14:49:32;8.00;;;5.43;;
50393;SDS011;36308;46.312;25.288;2022-08-14T14:51:58;9.10;;;5.78;;
50393;SDS011;36308;46.312;25.288;2022-08-14T14:54:24;8.48;;;5.43;;
50393;SDS011;36308;46.312;25.288;2022-08-14T14:56:51;9.30;;;5.57;;
50393;SDS011;36308;46.312;25.288;2022-08-14T14:59:17;6.82;;;4.75;;
50393;SDS011;36308;46.312;25.288;2022-08-14T15:01:46;9.35;;;5.32;;
50393;SDS011;36308;46.312;25.288;2022-08-14T15:04:14;8.93;;;4.85;;
50393;SDS011;36308;46.312;25.288;2022-08-14T15:06:39;7.90;;;5.20;;
50393;SDS011;36308;46.312;25.288;2022-08-14T15:09:06;6.68;;;5.15;;